createdAt,value
2022-10-22T00:03:31.829Z,86.17188
2022-10-22T00:08:32.156Z,86.12207
2022-10-22T00:13:31.968Z,86.23145
2022-10-22T00:18:31.699Z,86.42188
2022-10-22T00:23:31.875Z,87.44434
2022-10-22T00:28:32.028Z,86.77637
2022-10-22T00:33:32.111Z,87.25
2022-10-22T00:38:31.920Z,87.78027
2022-10-22T00:43:31.680Z,87.6084
2022-10-22T00:48:34.004Z,87.87891
2022-10-22T00:53:33.934Z,87.79199
2022-10-22T00:58:33.186Z,87.4541
2022-10-22T01:03:32.813Z,87.85645
2022-10-22T01:08:41.730Z,87.58887
2022-10-22T01:13:36.755Z,87.09961
2022-10-22T01:18:35.139Z,87.9209
2022-10-22T01:23:52.246Z,87.02734
2022-10-22T01:28:31.602Z,87.62793
2022-10-22T01:33:32.336Z,87.54785
2022-10-22T01:38:32.267Z,87.20801
2022-10-22T01:43:31.782Z,87.55176
2022-10-22T01:48:38.852Z,88.44922
2022-10-22T01:53:36.452Z,87.90039
2022-10-22T01:58:37.915Z,87.71777
2022-10-22T02:03:36.957Z,87.50293
2022-10-22T02:08:33.647Z,87.69141
2022-10-22T02:13:34.791Z,88.9502
2022-10-22T02:18:38.825Z,88.92773
2022-10-22T02:23:32.117Z,88.57129
2022-10-22T02:28:35.049Z,88.79785
2022-10-22T02:33:32.448Z,89.54883
2022-10-22T02:38:32.309Z,88.84082
2022-10-22T02:43:32.982Z,89.74902
2022-10-22T02:48:31.811Z,89.50488
2022-10-22T02:53:31.698Z,89.30078
2022-10-22T02:58:31.776Z,89.87793
2022-10-22T03:03:31.587Z,89.45801
2022-10-22T03:08:31.954Z,89.69727
2022-10-22T03:13:31.943Z,89.5752
2022-10-22T03:18:31.568Z,89.74512
2022-10-22T03:23:31.873Z,90.34375
2022-10-22T03:28:31.740Z,90.11426
2022-10-22T03:33:31.817Z,90.24414
2022-10-22T03:38:32.618Z,90.09082
2022-10-22T03:43:31.650Z,90.17969
2022-10-22T03:48:31.653Z,90.43457
2022-10-22T03:53:31.587Z,90.41211
2022-10-22T03:58:31.787Z,90.09082
2022-10-22T04:03:31.582Z,90.30469
2022-10-22T04:08:31.648Z,89.85938
2022-10-22T04:13:31.747Z,89.98926
2022-10-22T04:18:31.734Z,90.03516
2022-10-22T04:23:32.245Z,90.42188
2022-10-22T04:28:31.608Z,90.14648
2022-10-22T04:33:31.771Z,89.80078
2022-10-22T04:38:31.540Z,90.11133
2022-10-22T04:43:31.675Z,89.96484
2022-10-22T04:48:31.881Z,90.17969
2022-10-22T04:53:31.723Z,90.51465
2022-10-22T04:58:33.933Z,90.22168
2022-10-22T05:03:32.287Z,90.25879
2022-10-22T05:08:31.607Z,90.46973
2022-10-22T05:13:31.857Z,90.34766
2022-10-22T05:18:31.742Z,90.11328
2022-10-22T05:23:31.581Z,90.40137
2022-10-22T05:28:31.955Z,90.56738
2022-10-22T05:33:32.307Z,90.53223
2022-10-22T05:38:33.141Z,90.54199
2022-10-22T05:43:31.680Z,90.51367
2022-10-22T05:53:32.317Z,90.73438
2022-10-22T05:58:34.454Z,91.02734
2022-10-22T06:03:33.067Z,91.05469
2022-10-22T06:08:31.993Z,90.7334
2022-10-22T06:13:32.521Z,90.90527
2022-10-22T06:18:31.586Z,90.91016
2022-10-22T06:23:31.497Z,91.1875
2022-10-22T06:28:31.630Z,91.27148
2022-10-22T06:33:31.882Z,91.17676
2022-10-22T06:38:34.468Z,91.3877
2022-10-22T06:43:32.342Z,91.43262
2022-10-22T06:48:31.835Z,91.49707
2022-10-22T06:53:31.718Z,91.58594
2022-10-22T06:58:31.584Z,91.64941
2022-10-22T07:03:31.788Z,91.35742
2022-10-22T07:08:32.124Z,91.91211
2022-10-22T07:13:32.914Z,91.24316
2022-10-22T07:18:31.651Z,91.05469
2022-10-22T07:23:32.070Z,91.29199
2022-10-22T07:28:32.415Z,91.14355
2022-10-22T07:33:41.888Z,90.91113
2022-10-22T07:38:35.316Z,91.35742
2022-10-22T07:43:31.690Z,90.6875
2022-10-22T07:48:31.664Z,90.77832
2022-10-22T07:53:31.595Z,90.60059
2022-10-22T07:58:31.461Z,90.69336
2022-10-22T08:03:32.033Z,90.10254
2022-10-22T08:08:31.953Z,90.18945
2022-10-22T08:13:32.403Z,90.25781
2022-10-22T08:18:32.248Z,89.83789
2022-10-22T08:23:31.453Z,89.7168
2022-10-22T08:28:35.753Z,90.02637
2022-10-22T08:33:31.584Z,89.72266
2022-10-22T08:38:31.668Z,89.68359
2022-10-22T08:43:46.193Z,89.46484
2022-10-22T08:48:38.707Z,89.85449
2022-10-22T08:53:34.645Z,89.48145
2022-10-22T08:58:35.748Z,90.04492
2022-10-22T09:03:42.811Z,90.18945
2022-10-22T09:08:31.862Z,90.48633
2022-10-22T09:13:31.643Z,90.51855
2022-10-22T09:18:36.402Z,90.54785
2022-10-22T09:23:36.926Z,90.01758
2022-10-22T09:28:31.600Z,90.07813
2022-10-22T09:33:33.547Z,89.93555
2022-10-22T09:38:33.190Z,89.18262
2022-10-22T09:43:31.700Z,89.14746
2022-10-22T09:48:34.293Z,89.20313
2022-10-22T09:53:34.803Z,88.54004
2022-10-22T09:58:31.455Z,87.43652
2022-10-22T10:03:33.139Z,85.83887
2022-10-22T10:08:31.522Z,85.63965
2022-10-22T10:13:45.195Z,86.02246
2022-10-22T10:18:39.441Z,86.27441
2022-10-22T10:23:34.594Z,85.7002
2022-10-22T10:28:39.950Z,85.55371
2022-10-22T10:33:36.516Z,86.74414
2022-10-22T10:38:41.283Z,87.13379
2022-10-22T10:43:36.711Z,87.19336
2022-10-22T10:48:37.387Z,87.50684
2022-10-22T10:53:37.568Z,87.81738
2022-10-22T10:58:35.726Z,87.4043
2022-10-22T11:03:42.675Z,87.45703
2022-10-22T11:08:36.820Z,88.02637
2022-10-22T11:13:34.498Z,88.13379
2022-10-22T11:18:36.023Z,88.38477
2022-10-22T11:23:35.887Z,88.13379
2022-10-22T11:28:35.687Z,87.20703
2022-10-22T11:33:35.580Z,86.63477
2022-10-22T11:38:35.017Z,85.22949
2022-10-22T11:43:36.074Z,84.56445
2022-10-22T11:48:32.505Z,83.66211
2022-10-22T11:53:35.260Z,83.7168
2022-10-22T11:58:35.780Z,82.73047
2022-10-22T12:03:45.664Z,82.67285
2022-10-22T12:08:35.387Z,82.46484
2022-10-22T12:13:32.674Z,81.16797
2022-10-22T12:18:32.669Z,80.86621
2022-10-22T12:23:34.511Z,79.50977
2022-10-22T12:28:31.416Z,79.11133
2022-10-22T12:33:33.648Z,76.63281
2022-10-22T12:38:32.651Z,76.16309
2022-10-22T12:43:33.361Z,75.5625
2022-10-22T12:48:34.176Z,76.65723
2022-10-22T12:53:37.511Z,73.91016
2022-10-22T12:58:33.453Z,73.36426
2022-10-22T13:03:38.194Z,73.60449
2022-10-22T13:08:32.454Z,74.56934
2022-10-22T13:13:46.790Z,74.5459
2022-10-22T13:18:36.919Z,75.13867
2022-10-22T13:23:31.931Z,75.53223
2022-10-22T13:28:32.293Z,75.88379
2022-10-22T13:33:33.801Z,75.53906
2022-10-22T13:38:32.113Z,75.52441
2022-10-22T13:43:31.453Z,75.7207
2022-10-22T13:48:32.967Z,75.55176
2022-10-22T13:53:32.727Z,75.5791
2022-10-22T13:58:31.561Z,75.0293
2022-10-22T14:03:33.827Z,74.74805
2022-10-22T14:08:31.861Z,74.10059
2022-10-22T14:13:31.509Z,74.03711
2022-10-22T14:18:34.638Z,74.08398
2022-10-22T14:23:33.134Z,74.07324
2022-10-22T14:28:34.206Z,74.37598
2022-10-22T14:33:32.951Z,74.38574
2022-10-22T14:38:31.632Z,74.64453
2022-10-22T14:43:32.097Z,74.61816
2022-10-22T14:48:31.343Z,74.71484
2022-10-22T14:53:33.911Z,74.99121
2022-10-22T14:58:31.544Z,75.6377
2022-10-22T15:03:32.138Z,75.80371
2022-10-22T15:08:31.648Z,75.87598
2022-10-22T15:13:32.188Z,76.1582
2022-10-22T15:18:31.833Z,76.66113
2022-10-22T15:23:31.855Z,76.6084
2022-10-22T15:28:31.607Z,76.7793
2022-10-22T15:33:32.449Z,76.93164
2022-10-22T15:38:34.487Z,77.4082
2022-10-22T15:43:31.890Z,77.81348
2022-10-22T15:48:31.304Z,77.69141
2022-10-22T15:53:31.629Z,77.96973
2022-10-22T15:58:31.516Z,78.39453
2022-10-22T16:08:31.854Z,78.91016
2022-10-22T16:13:31.820Z,79.0459
2022-10-22T16:18:31.600Z,79.22656
2022-10-22T16:23:31.577Z,79.19434
2022-10-22T16:28:31.825Z,79.08008
2022-10-22T16:33:41.126Z,79.00098
2022-10-22T16:38:31.694Z,79.24219
2022-10-22T16:43:33.030Z,79.62402
2022-10-22T16:48:32.272Z,79.92383
2022-10-22T16:53:31.415Z,80.15234
2022-10-22T16:58:31.827Z,80.25781
2022-10-22T17:03:31.572Z,80.31738
2022-10-22T17:08:31.501Z,80.52539
2022-10-22T17:13:31.344Z,80.43555
2022-10-22T17:18:31.428Z,80.59961
2022-10-22T17:23:32.091Z,80.32617
2022-10-22T17:28:31.916Z,79.94141
2022-10-22T17:33:31.677Z,80.26563
2022-10-22T17:38:31.903Z,80.74414
2022-10-22T17:43:31.289Z,80.64941
2022-10-22T17:48:31.283Z,80.51855
2022-10-22T17:53:31.654Z,80.64648
2022-10-22T17:58:32.294Z,80.57617
2022-10-22T18:03:35.705Z,80.80566
2022-10-22T18:08:31.450Z,80.96777
2022-10-22T18:13:32.078Z,81.0625
2022-10-22T18:18:31.394Z,81.2373
2022-10-22T18:23:33.067Z,81.02441
2022-10-22T18:28:31.630Z,81.18652
2022-10-22T18:33:31.571Z,81.35742
2022-10-22T18:38:31.552Z,81.30664
2022-10-22T18:43:31.389Z,81.32227
2022-10-22T18:48:31.494Z,81.49512
2022-10-22T18:53:31.355Z,81.32617
2022-10-22T18:58:31.956Z,81.39746
2022-10-22T19:03:31.553Z,81.39453
2022-10-22T19:08:31.435Z,81.32031
2022-10-22T19:13:31.423Z,81.48047
2022-10-22T19:18:32.070Z,81.55566
2022-10-22T19:23:34.166Z,81.43359
2022-10-22T19:28:31.362Z,81.36426
2022-10-22T19:33:31.539Z,81.37793
2022-10-22T19:38:32.563Z,81.64844
2022-10-22T19:43:32.063Z,81.63281
2022-10-22T19:48:31.506Z,81.63672
2022-10-22T19:53:31.270Z,81.50781
2022-10-22T19:58:33.030Z,81.9834
2022-10-22T20:03:35.920Z,81.74707
2022-10-22T20:08:38.648Z,81.82129
2022-10-22T20:13:31.473Z,81.97168
2022-10-22T20:18:33.800Z,81.70508
2022-10-22T20:23:31.959Z,81.81152
2022-10-22T20:28:31.427Z,81.94434
2022-10-22T20:33:34.438Z,82.20801
2022-10-22T20:38:31.353Z,82.31543
2022-10-22T20:43:31.239Z,82.30273
2022-10-22T20:48:31.925Z,82.39551
2022-10-22T20:53:31.790Z,82.23047
2022-10-22T20:58:31.477Z,82.54102
2022-10-22T21:03:31.377Z,82.30176
2022-10-22T21:08:31.446Z,82.36816
2022-10-22T21:13:31.323Z,82.53125
2022-10-22T21:18:31.304Z,82.75195
2022-10-22T21:23:32.359Z,82.41309
2022-10-22T21:28:31.927Z,82.68945
2022-10-22T21:33:31.294Z,82.66504
2022-10-22T21:38:31.313Z,82.85059
2022-10-22T21:43:31.257Z,83.09863
2022-10-22T21:48:31.321Z,82.875
2022-10-22T21:53:31.420Z,82.62793
2022-10-22T21:58:32.460Z,82.96387
2022-10-22T22:03:31.398Z,82.69434
2022-10-22T22:08:33.273Z,83.03613
2022-10-22T22:13:31.421Z,83.35645
2022-10-22T22:18:31.305Z,83.63379
2022-10-22T22:23:31.697Z,83.4873
2022-10-22T22:28:33.002Z,83.39746
2022-10-22T22:33:31.340Z,83.09766
2022-10-22T22:38:31.355Z,83.19727
2022-10-22T22:43:31.429Z,82.75
2022-10-22T22:48:31.177Z,82.99609
2022-10-22T22:53:31.795Z,82.80273
2022-10-22T22:58:32.034Z,83.02441
2022-10-22T23:03:31.759Z,83.27734
2022-10-22T23:08:31.376Z,83.33496
2022-10-22T23:13:31.244Z,83.16992
2022-10-22T23:18:31.268Z,83.28906
2022-10-22T23:23:32.637Z,83.38672
2022-10-22T23:28:31.280Z,83.19531
2022-10-22T23:33:31.220Z,83.41699
2022-10-22T23:38:32.744Z,83.80469
2022-10-22T23:43:32.023Z,83.7998
2022-10-22T23:48:33.776Z,84.65332
2022-10-22T23:53:31.193Z,83.88477
2022-10-22T23:58:31.216Z,84.0459
